Time;durP1;ratioP1;P1;durP2;ratioP2;P2;SDS_P1;SDS_P2;PMS_P1;PMS_P2;Temp;Humidity;BMP_temperature;BMP_pressure;BME280_temperature;BME280_humidity;BME280_pressure;Samples;Min_cycle;Max_cycle;Signal;HPM_P1;HPM_P2
2021/09/07 00:00:32;;;;;;;15.57;9.65;;;;;;;;;;5024064;28;20028;-63
2021/09/07 00:02:57;;;;;;;15.23;9.38;;;;;;;;;;5025451;28;20543;-63
2021/09/07 00:05:23;;;;;;;15.45;9.55;;;;;;;;;;5026940;28;20034;-63
2021/09/07 00:07:48;;;;;;;15.57;9.68;;;;;;;;;;5029080;28;20026;-63
2021/09/07 00:10:13;;;;;;;15.23;9.68;;;;;;;;;;5023359;28;20098;-63
2021/09/07 00:12:39;;;;;;;18.55;11.25;;;;;;;;;;5026295;28;20022;-64
2021/09/07 00:15:06;;;;;;;14.45;9.73;;;;;;;;;;5028727;28;20031;-63
2021/09/07 00:17:31;;;;;;;15.00;9.77;;;;;;;;;;5037367;28;20018;-64
2021/09/07 00:19:56;;;;;;;19.38;10.98;;;;;;;;;;5028209;28;20405;-64
2021/09/07 00:22:21;;;;;;;14.48;9.70;;;;;;;;;;5023774;28;20072;-63
2021/09/07 00:24:47;;;;;;;17.52;10.63;;;;;;;;;;5010943;28;20045;-63
2021/09/07 00:27:12;;;;;;;14.38;8.93;;;;;;;;;;5027347;28;20086;-63
2021/09/07 00:29:37;;;;;;;15.07;9.85;;;;;;;;;;5022571;28;20037;-63
2021/09/07 00:32:02;;;;;;;17.10;10.80;;;;;;;;;;5024801;28;20021;-63
2021/09/07 00:34:27;;;;;;;17.75;9.30;;;;;;;;;;5023368;28;20747;-63
2021/09/07 00:36:52;;;;;;;16.30;10.63;;;;;;;;;;5024484;28;20437;-63
2021/09/07 00:39:18;;;;;;;18.08;10.45;;;;;;;;;;5021219;28;20403;-62
2021/09/07 00:41:43;;;;;;;17.17;10.75;;;;;;;;;;5026778;28;20137;-63
2021/09/07 00:44:15;;;;;;;17.38;10.88;;;;;;;;;;5025730;28;20956;-62
2021/09/07 00:46:41;;;;;;;20.17;10.70;;;;;;;;;;5029884;28;20128;-63
2021/09/07 00:49:06;;;;;;;16.60;10.20;;;;;;;;;;5029272;28;20108;-62
2021/09/07 00:51:32;;;;;;;18.40;10.93;;;;;;;;;;5027168;28;20021;-63
2021/09/07 00:53:58;;;;;;;16.60;10.43;;;;;;;;;;5023914;28;20029;-63
2021/09/07 00:56:24;;;;;;;15.73;10.15;;;;;;;;;;5025859;28;20358;-63
2021/09/07 00:58:49;;;;;;;15.75;9.73;;;;;;;;;;5028102;28;20026;-63
2021/09/07 01:01:15;;;;;;;17.30;9.85;;;;;;;;;;5023052;28;20029;-63
2021/09/07 01:03:40;;;;;;;15.55;10.07;;;;;;;;;;5028625;28;20038;-63
2021/09/07 01:06:05;;;;;;;14.80;9.40;;;;;;;;;;5023678;28;20112;-62
2021/09/07 01:08:30;;;;;;;15.00;9.90;;;;;;;;;;5023482;28;20219;-63
2021/09/07 01:10:55;;;;;;;18.23;10.52;;;;;;;;;;5024085;28;20037;-64
2021/09/07 01:13:20;;;;;;;15.80;10.20;;;;;;;;;;5027961;28;20060;-63
2021/09/07 01:15:46;;;;;;;16.85;10.27;;;;;;;;;;5028557;28;20029;-63
2021/09/07 01:18:11;;;;;;;18.52;10.07;;;;;;;;;;5028346;28;20029;-63
2021/09/07 01:20:36;;;;;;;15.48;9.80;;;;;;;;;;5023123;28;20071;-63
2021/09/07 01:23:02;;;;;;;14.88;9.75;;;;;;;;;;5024729;28;20022;-63
2021/09/07 01:25:27;;;;;;;14.95;9.00;;;;;;;;;;5019260;28;20037;-62
2021/09/07 01:27:52;;;;;;;15.80;10.30;;;;;;;;;;5025151;28;20061;-63
2021/09/07 01:30:17;;;;;;;13.68;9.23;;;;;;;;;;5021452;28;20034;-63
2021/09/07 01:32:42;;;;;;;14.57;9.48;;;;;;;;;;5028731;28;20028;-64
2021/09/07 01:35:08;;;;;;;16.33;9.38;;;;;;;;;;5020585;28;20025;-64
2021/09/07 01:37:39;;;;;;;14.40;9.52;;;;;;;;;;5024430;28;20022;-63
2021/09/07 01:40:05;;;;;;;17.15;9.65;;;;;;;;;;5028586;28;20040;-64
2021/09/07 01:42:30;;;;;;;15.27;9.18;;;;;;;;;;5026141;28;20047;-64
2021/09/07 01:44:56;;;;;;;15.07;9.88;;;;;;;;;;5025220;28;20029;-63
2021/09/07 01:47:21;;;;;;;15.90;9.68;;;;;;;;;;5021484;28;20029;-63
2021/09/07 01:49:46;;;;;;;13.43;8.70;;;;;;;;;;5028843;28;20048;-64
2021/09/07 01:52:12;;;;;;;14.50;8.65;;;;;;;;;;5026505;28;20269;-64
2021/09/07 01:54:42;;;;;;;16.40;9.27;;;;;;;;;;5023888;28;20079;-63
2021/09/07 01:57:07;;;;;;;14.82;8.73;;;;;;;;;;5015437;28;20118;-63
2021/09/07 01:59:33;;;;;;;14.07;9.27;;;;;;;;;;5021822;28;22550;-64
2021/09/07 02:01:58;;;;;;;16.50;8.63;;;;;;;;;;5024507;28;20021;-64
2021/09/07 02:04:23;;;;;;;14.70;9.88;;;;;;;;;;5027212;28;20038;-63
2021/09/07 02:06:49;;;;;;;18.50;10.10;;;;;;;;;;5025115;28;20022;-63
2021/09/07 02:09:14;;;;;;;15.43;9.95;;;;;;;;;;5020092;28;20122;-63
2021/09/07 02:11:39;;;;;;;14.90;10.27;;;;;;;;;;5023119;28;20380;-63
2021/09/07 02:14:04;;;;;;;19.80;9.93;;;;;;;;;;5022464;28;20108;-63
2021/09/07 02:16:29;;;;;;;15.00;9.20;;;;;;;;;;5023168;28;20381;-63
2021/09/07 02:18:54;;;;;;;16.20;9.65;;;;;;;;;;5019275;28;20276;-63
2021/09/07 02:21:20;;;;;;;15.90;10.07;;;;;;;;;;5022166;28;20017;-63
2021/09/07 02:23:45;;;;;;;16.75;10.25;;;;;;;;;;5027538;28;20036;-64
2021/09/07 02:26:10;;;;;;;14.48;8.52;;;;;;;;;;5020796;28;20025;-62
2021/09/07 02:28:35;;;;;;;15.70;9.38;;;;;;;;;;5024692;28;20025;-63
2021/09/07 02:31:00;;;;;;;16.27;8.90;;;;;;;;;;5021664;28;20024;-63
2021/09/07 02:33:26;;;;;;;15.80;10.38;;;;;;;;;;5025754;28;20056;-63
2021/09/07 02:35:51;;;;;;;16.80;9.70;;;;;;;;;;5018773;28;20022;-63
2021/09/07 02:38:16;;;;;;;14.00;9.60;;;;;;;;;;5022894;28;20056;-63
2021/09/07 02:40:41;;;;;;;14.95;9.82;;;;;;;;;;5020304;28;20492;-63
2021/09/07 02:43:06;;;;;;;15.23;8.90;;;;;;;;;;5023796;28;20036;-63
2021/09/07 02:45:31;;;;;;;16.48;9.35;;;;;;;;;;5018778;28;20026;-63
2021/09/07 02:47:57;;;;;;;15.60;9.07;;;;;;;;;;5024473;28;20390;-63
2021/09/07 02:50:22;;;;;;;16.05;10.52;;;;;;;;;;5023912;28;20033;-63
2021/09/07 02:52:48;;;;;;;16.58;10.05;;;;;;;;;;5026804;28;20029;-63
2021/09/07 02:55:13;;;;;;;16.27;9.93;;;;;;;;;;5026549;28;20558;-64
2021/09/07 02:57:38;;;;;;;17.30;10.48;;;;;;;;;;5025539;28;20108;-66
2021/09/07 03:00:04;;;;;;;13.27;8.77;;;;;;;;;;5022157;28;20433;-63
2021/09/07 03:02:30;;;;;;;17.83;9.52;;;;;;;;;;5024514;28;20495;-63
2021/09/07 03:04:55;;;;;;;14.90;9.18;;;;;;;;;;5022607;28;20041;-63
2021/09/07 03:07:20;;;;;;;15.25;9.35;;;;;;;;;;5021509;28;20097;-63
2021/09/07 03:09:45;;;;;;;14.75;9.38;;;;;;;;;;5019140;28;20032;-63
2021/09/07 03:12:10;;;;;;;15.95;9.15;;;;;;;;;;5022163;28;20025;-62
2021/09/07 03:14:35;;;;;;;13.63;8.93;;;;;;;;;;5021994;28;20508;-63
2021/09/07 03:17:01;;;;;;;13.02;8.95;;;;;;;;;;5028217;28;20017;-63
2021/09/07 03:19:26;;;;;;;14.60;9.30;;;;;;;;;;5030995;28;20496;-63
2021/09/07 03:21:51;;;;;;;13.75;8.93;;;;;;;;;;5031496;28;20045;-63
2021/09/07 03:24:16;;;;;;;15.10;9.55;;;;;;;;;;5021157;28;20037;-63
2021/09/07 03:26:41;;;;;;;15.27;9.68;;;;;;;;;;5026263;28;20018;-62
2021/09/07 03:29:07;;;;;;;16.10;9.43;;;;;;;;;;5023500;28;20365;-63
2021/09/07 03:31:32;;;;;;;14.48;9.48;;;;;;;;;;5031085;28;20017;-63
2021/09/07 03:33:57;;;;;;;16.15;9.18;;;;;;;;;;5028484;28;20028;-63
2021/09/07 03:36:22;;;;;;;15.25;9.07;;;;;;;;;;5031156;28;20026;-63
2021/09/07 03:38:47;;;;;;;13.23;9.10;;;;;;;;;;5029429;28;20072;-64
2021/09/07 03:41:13;;;;;;;15.90;9.03;;;;;;;;;;5025482;28;20068;-62
2021/09/07 03:43:38;;;;;;;12.30;8.80;;;;;;;;;;5023158;28;20291;-63
2021/09/07 03:46:03;;;;;;;15.57;10.23;;;;;;;;;;5027839;28;20207;-63
2021/09/07 03:48:29;;;;;;;18.27;9.32;;;;;;;;;;5027287;28;20022;-62
2021/09/07 03:50:54;;;;;;;14.38;9.48;;;;;;;;;;5029499;28;20041;-63
2021/09/07 03:53:19;;;;;;;15.85;10.20;;;;;;;;;;5030631;28;20025;-63
2021/09/07 03:55:44;;;;;;;13.20;9.35;;;;;;;;;;5022528;28;20961;-63
2021/09/07 03:58:09;;;;;;;14.57;9.05;;;;;;;;;;5030933;28;20033;-63
2021/09/07 04:00:35;;;;;;;14.10;9.32;;;;;;;;;;5023437;28;20228;-63
2021/09/07 04:03:00;;;;;;;13.77;9.02;;;;;;;;;;5027794;28;20109;-63
2021/09/07 04:05:25;;;;;;;14.75;9.07;;;;;;;;;;5027624;28;20584;-63
2021/09/07 04:07:50;;;;;;;13.63;8.88;;;;;;;;;;5027441;28;20056;-63
2021/09/07 04:10:16;;;;;;;14.93;9.50;;;;;;;;;;5020394;28;20595;-62
2021/09/07 04:12:41;;;;;;;14.98;9.75;;;;;;;;;;5030046;28;20029;-62
2021/09/07 04:15:06;;;;;;;13.23;8.93;;;;;;;;;;5028913;28;20414;-63
2021/09/07 04:17:31;;;;;;;13.73;8.93;;;;;;;;;;5029609;28;20044;-63
2021/09/07 04:19:57;;;;;;;15.30;9.95;;;;;;;;;;5020245;28;20021;-62
2021/09/07 04:22:22;;;;;;;17.23;10.43;;;;;;;;;;5023198;28;20030;-62
2021/09/07 04:24:47;;;;;;;16.80;9.50;;;;;;;;;;5028259;28;20061;-63
2021/09/07 04:27:12;;;;;;;16.08;9.80;;;;;;;;;;5035600;28;20346;-62
2021/09/07 04:29:37;;;;;;;14.60;9.10;;;;;;;;;;5021423;28;20099;-63
2021/09/07 04:32:03;;;;;;;16.58;10.10;;;;;;;;;;5025988;28;20046;-63
2021/09/07 04:34:28;;;;;;;15.40;9.90;;;;;;;;;;5021385;28;20025;-63
2021/09/07 04:36:53;;;;;;;16.95;10.65;;;;;;;;;;5025592;28;20022;-62
2021/09/07 04:39:18;;;;;;;16.77;10.25;;;;;;;;;;5024404;28;20034;-63
2021/09/07 04:41:44;;;;;;;15.40;9.45;;;;;;;;;;5026538;28;20041;-63
2021/09/07 04:44:09;;;;;;;15.32;10.20;;;;;;;;;;5029984;28;20040;-63
2021/09/07 04:46:34;;;;;;;13.90;9.48;;;;;;;;;;5030756;28;20039;-63
2021/09/07 04:48:59;;;;;;;16.75;9.65;;;;;;;;;;5028595;28;20495;-63
2021/09/07 04:51:24;;;;;;;14.98;9.82;;;;;;;;;;5030152;28;20426;-63
2021/09/07 04:53:50;;;;;;;15.57;9.75;;;;;;;;;;5030694;28;20028;-63
2021/09/07 04:56:15;;;;;;;14.02;9.02;;;;;;;;;;5024526;28;20025;-61
2021/09/07 04:58:40;;;;;;;15.43;9.30;;;;;;;;;;5026481;28;20033;-63
2021/09/07 05:01:06;;;;;;;16.17;9.32;;;;;;;;;;5028006;28;20032;-63
2021/09/07 05:03:31;;;;;;;16.80;8.98;;;;;;;;;;5029175;28;20032;-63
2021/09/07 05:05:56;;;;;;;14.35;8.82;;;;;;;;;;5028960;28;20025;-63
2021/09/07 05:08:21;;;;;;;14.38;9.68;;;;;;;;;;5026053;28;20096;-62
2021/09/07 05:10:47;;;;;;;13.68;8.85;;;;;;;;;;5029882;28;20013;-63
2021/09/07 05:13:12;;;;;;;13.95;9.20;;;;;;;;;;5028158;28;20079;-63
2021/09/07 05:15:37;;;;;;;14.20;9.00;;;;;;;;;;5028149;28;20105;-63
2021/09/07 05:18:02;;;;;;;15.90;9.40;;;;;;;;;;5028067;28;20032;-64
2021/09/07 05:20:27;;;;;;;14.82;9.32;;;;;;;;;;5030882;28;20017;-61
2021/09/07 05:22:53;;;;;;;14.50;8.50;;;;;;;;;;5027220;28;20439;-62
2021/09/07 05:25:18;;;;;;;15.35;9.60;;;;;;;;;;5027055;28;20029;-63
2021/09/07 05:27:43;;;;;;;15.30;9.00;;;;;;;;;;5029358;28;20033;-62
2021/09/07 05:30:11;;;;;;;14.43;8.93;;;;;;;;;;5027941;28;20028;-63
2021/09/07 05:32:37;;;;;;;15.60;9.52;;;;;;;;;;5023919;28;20028;-63
2021/09/07 05:35:02;;;;;;;18.48;9.52;;;;;;;;;;5028514;28;20491;-62
2021/09/07 05:37:27;;;;;;;12.80;8.25;;;;;;;;;;5028139;28;20043;-62
2021/09/07 05:39:52;;;;;;;13.18;8.20;;;;;;;;;;5025315;28;20025;-64
2021/09/07 05:42:18;;;;;;;13.82;7.88;;;;;;;;;;5028803;28;20041;-64
2021/09/07 05:44:43;;;;;;;13.45;8.48;;;;;;;;;;5024319;28;20042;-62
2021/09/07 05:47:08;;;;;;;11.10;8.02;;;;;;;;;;5027721;28;20022;-63
2021/09/07 05:49:33;;;;;;;12.40;7.95;;;;;;;;;;5028062;28;20036;-63
2021/09/07 05:51:58;;;;;;;13.18;7.88;;;;;;;;;;5028412;28;20503;-63
2021/09/07 05:54:24;;;;;;;13.95;7.80;;;;;;;;;;5026401;28;20025;-62
2021/09/07 05:56:49;;;;;;;10.40;7.50;;;;;;;;;;5023893;28;20021;-64
2021/09/07 05:59:15;;;;;;;11.27;6.57;;;;;;;;;;5027872;28;20021;-64
2021/09/07 06:01:41;;;;;;;11.18;7.00;;;;;;;;;;5029031;28;20021;-63
2021/09/07 06:04:06;;;;;;;15.68;7.97;;;;;;;;;;5027616;28;20052;-64
2021/09/07 06:06:32;;;;;;;11.95;6.65;;;;;;;;;;5029455;28;20063;-63
2021/09/07 06:08:57;;;;;;;10.60;6.40;;;;;;;;;;5023365;28;20071;-63
2021/09/07 06:11:22;;;;;;;11.50;6.40;;;;;;;;;;5015935;28;20478;-63
2021/09/07 06:13:47;;;;;;;10.90;6.53;;;;;;;;;;5028378;28;20286;-63
2021/09/07 06:16:13;;;;;;;9.93;5.78;;;;;;;;;;5021314;28;20764;-63
2021/09/07 06:18:38;;;;;;;9.70;5.85;;;;;;;;;;5028436;28;20034;-62
2021/09/07 06:21:03;;;;;;;10.35;6.10;;;;;;;;;;5028111;28;20038;-63
2021/09/07 06:23:28;;;;;;;10.47;6.53;;;;;;;;;;5028104;28;20499;-63
2021/09/07 06:25:57;;;;;;;13.63;6.22;;;;;;;;;;5027532;28;20365;-62
2021/09/07 06:28:23;;;;;;;9.07;5.72;;;;;;;;;;5021387;28;20024;-63
2021/09/07 06:30:48;;;;;;;9.70;6.00;;;;;;;;;;5025621;28;20373;-62
2021/09/07 06:33:13;;;;;;;9.48;6.70;;;;;;;;;;5027232;28;20272;-63
2021/09/07 06:35:38;;;;;;;12.00;7.30;;;;;;;;;;5020557;28;20014;-63
2021/09/07 06:38:03;;;;;;;11.23;6.93;;;;;;;;;;5023833;28;20279;-62
2021/09/07 06:40:28;;;;;;;13.25;6.72;;;;;;;;;;5019372;28;20037;-62
2021/09/07 06:42:55;;;;;;;11.83;6.83;;;;;;;;;;5028640;28;20033;-63
2021/09/07 06:45:20;;;;;;;12.30;7.15;;;;;;;;;;5024522;28;21285;-63
2021/09/07 06:47:45;;;;;;;8.47;6.10;;;;;;;;;;5025766;28;20057;-63
2021/09/07 06:50:11;;;;;;;10.95;6.50;;;;;;;;;;5026868;28;20326;-63
2021/09/07 06:52:37;;;;;;;12.98;6.88;;;;;;;;;;5024854;28;20365;-63
2021/09/07 06:55:02;;;;;;;11.40;7.07;;;;;;;;;;5027357;28;20040;-63
2021/09/07 06:57:27;;;;;;;12.23;7.10;;;;;;;;;;5031291;28;20502;-62
2021/09/07 06:59:53;;;;;;;12.98;7.00;;;;;;;;;;5026844;28;20025;-62
2021/09/07 07:02:18;;;;;;;18.95;7.30;;;;;;;;;;5027607;28;20105;-62
2021/09/07 07:04:44;;;;;;;12.18;7.18;;;;;;;;;;5032471;28;20527;-63
2021/09/07 07:07:09;;;;;;;15.85;6.25;;;;;;;;;;5019760;28;20071;-66
2021/09/07 07:09:34;;;;;;;9.40;6.10;;;;;;;;;;5023710;28;20350;-67
2021/09/07 07:11:59;;;;;;;14.83;7.47;;;;;;;;;;5031519;28;20020;-66
2021/09/07 07:14:24;;;;;;;10.83;6.57;;;;;;;;;;5029569;28;20346;-66
2021/09/07 07:16:50;;;;;;;11.05;7.00;;;;;;;;;;5020974;28;20284;-66
2021/09/07 07:19:15;;;;;;;16.07;7.23;;;;;;;;;;5031617;28;20029;-66
2021/09/07 07:21:40;;;;;;;10.70;6.30;;;;;;;;;;5037095;28;20244;-66
2021/09/07 07:24:06;;;;;;;11.48;6.63;;;;;;;;;;5032060;28;20095;-65
2021/09/07 07:26:31;;;;;;;12.82;6.78;;;;;;;;;;5032248;28;20053;-65
2021/09/07 07:28:56;;;;;;;11.00;7.70;;;;;;;;;;5030182;28;20065;-65
2021/09/07 07:31:21;;;;;;;14.93;8.47;;;;;;;;;;5031976;28;20842;-65
2021/09/07 07:33:46;;;;;;;12.68;7.47;;;;;;;;;;5031152;28;20374;-65
2021/09/07 07:36:11;;;;;;;10.00;7.07;;;;;;;;;;5031898;28;20033;-66
2021/09/07 07:38:36;;;;;;;16.70;7.30;;;;;;;;;;5030065;28;20283;-65
2021/09/07 07:41:02;;;;;;;14.02;7.32;;;;;;;;;;5031755;28;20053;-66
2021/09/07 07:43:29;;;;;;;12.43;6.80;;;;;;;;;;5030297;28;20026;-65
2021/09/07 07:45:54;;;;;;;11.23;8.02;;;;;;;;;;5031131;28;20038;-66
2021/09/07 07:48:20;;;;;;;12.35;6.88;;;;;;;;;;5031988;28;20372;-66
2021/09/07 07:50:45;;;;;;;14.32;7.15;;;;;;;;;;5032418;28;20056;-66
2021/09/07 07:53:10;;;;;;;12.70;7.18;;;;;;;;;;5031655;28;20013;-66
2021/09/07 07:55:35;;;;;;;12.38;7.30;;;;;;;;;;5031055;28;20548;-65
2021/09/07 07:58:00;;;;;;;12.50;6.93;;;;;;;;;;5031406;28;20057;-66
2021/09/07 08:00:26;;;;;;;10.60;6.57;;;;;;;;;;5023512;28;20299;-67
2021/09/07 08:02:51;;;;;;;12.82;6.68;;;;;;;;;;5026009;28;20280;-66
2021/09/07 08:05:16;;;;;;;10.10;6.73;;;;;;;;;;5025994;28;20037;-67
2021/09/07 08:07:41;;;;;;;12.57;6.60;;;;;;;;;;5031432;28;20252;-67
2021/09/07 08:10:06;;;;;;;12.30;6.78;;;;;;;;;;5030962;28;21073;-66
2021/09/07 08:12:32;;;;;;;12.23;8.13;;;;;;;;;;5022886;28;20025;-66
2021/09/07 08:14:57;;;;;;;11.27;7.00;;;;;;;;;;5027139;28;20045;-67
2021/09/07 08:17:22;;;;;;;12.98;7.20;;;;;;;;;;5029610;28;20616;-65
2021/09/07 08:19:47;;;;;;;12.43;7.00;;;;;;;;;;5031518;28;20058;-66
2021/09/07 08:22:14;;;;;;;12.60;7.00;;;;;;;;;;5033186;28;20021;-66
2021/09/07 08:24:39;;;;;;;13.20;7.13;;;;;;;;;;5030728;28;20033;-63
2021/09/07 08:27:04;;;;;;;13.15;6.93;;;;;;;;;;5029122;28;20048;-64
2021/09/07 08:29:29;;;;;;;11.77;6.22;;;;;;;;;;5029776;28;20399;-63
2021/09/07 08:31:55;;;;;;;14.48;6.95;;;;;;;;;;5029199;28;20087;-63
2021/09/07 08:34:20;;;;;;;15.13;6.70;;;;;;;;;;5030499;28;20029;-63
2021/09/07 08:36:45;;;;;;;11.13;6.88;;;;;;;;;;5029518;28;20422;-62
2021/09/07 08:39:10;;;;;;;10.80;6.87;;;;;;;;;;5030461;28;20494;-63
2021/09/07 08:41:35;;;;;;;12.00;6.90;;;;;;;;;;5028271;28;20292;-63
2021/09/07 08:44:01;;;;;;;12.63;7.50;;;;;;;;;;5030498;28;20721;-63
2021/09/07 08:46:26;;;;;;;12.90;6.38;;;;;;;;;;5026307;28;20029;-61
2021/09/07 08:48:51;;;;;;;12.40;6.90;;;;;;;;;;5029443;28;20033;-62
2021/09/07 08:51:17;;;;;;;8.98;5.65;;;;;;;;;;5029981;28;20268;-62
2021/09/07 08:53:43;;;;;;;11.40;6.30;;;;;;;;;;5029325;28;20057;-62
2021/09/07 08:56:09;;;;;;;10.65;6.15;;;;;;;;;;5030984;28;20056;-63
2021/09/07 08:58:34;;;;;;;10.23;5.85;;;;;;;;;;5031413;28;20030;-62
2021/09/07 09:01:16;;;;;;;10.35;5.95;;;;;;;;;;5027195;28;20385;-60
2021/09/07 09:03:42;;;;;;;10.95;5.82;;;;;;;;;;5023341;28;20032;-58
2021/09/07 09:06:07;;;;;;;8.85;5.82;;;;;;;;;;5028145;28;20033;-59
2021/09/07 09:08:33;;;;;;;10.32;5.93;;;;;;;;;;5029648;28;20107;-58
2021/09/07 09:11:03;;;;;;;10.70;6.70;;;;;;;;;;5027020;28;20033;-59
2021/09/07 09:13:39;;;;;;;9.18;6.15;;;;;;;;;;5023101;28;20021;-59
2021/09/07 09:16:05;;;;;;;12.43;8.05;;;;;;;;;;5023368;28;20032;-60
2021/09/07 09:18:32;;;;;;;9.82;6.07;;;;;;;;;;5024450;28;20018;-60
2021/09/07 09:21:17;;;;;;;9.40;6.30;;;;;;;;;;5021582;28;20064;-59
2021/09/07 09:23:42;;;;;;;10.10;5.32;;;;;;;;;;5027610;28;20025;-60
2021/09/07 09:26:07;;;;;;;8.40;5.80;;;;;;;;;;5029369;28;20079;-60
2021/09/07 09:28:33;;;;;;;9.87;5.90;;;;;;;;;;5029301;28;20248;-59
2021/09/07 09:30:58;;;;;;;11.35;5.72;;;;;;;;;;5023120;28;20276;-59
2021/09/07 09:33:25;;;;;;;9.65;5.70;;;;;;;;;;5029436;28;20160;-60
2021/09/07 09:35:52;;;;;;;8.90;5.43;;;;;;;;;;5026840;28;20033;-60
2021/09/07 09:38:17;;;;;;;8.40;5.13;;;;;;;;;;5023234;28;20499;-60
2021/09/07 09:40:43;;;;;;;8.75;4.82;;;;;;;;;;5022568;28;20037;-60
2021/09/07 09:43:28;;;;;;;8.60;5.47;;;;;;;;;;5028660;28;20116;-59
2021/09/07 09:45:54;;;;;;;7.65;5.28;;;;;;;;;;5027647;28;20041;-59
2021/09/07 09:48:29;;;;;;;7.43;4.78;;;;;;;;;;5029108;28;20392;-60
2021/09/07 09:50:55;;;;;;;12.05;6.10;;;;;;;;;;5031911;28;20032;-59
2021/09/07 09:53:21;;;;;;;9.80;6.25;;;;;;;;;;5029189;28;20461;-60
2021/09/07 09:55:48;;;;;;;8.40;5.57;;;;;;;;;;5024554;28;20033;-61
2021/09/07 09:58:14;;;;;;;11.77;6.00;;;;;;;;;;5029166;28;20036;-58
2021/09/07 10:00:42;;;;;;;9.10;5.45;;;;;;;;;;5028278;28;20160;-60
2021/09/07 10:03:09;;;;;;;9.10;6.30;;;;;;;;;;5028957;28;20025;-60
2021/09/07 10:05:34;;;;;;;8.75;5.15;;;;;;;;;;5028033;28;20033;-59
2021/09/07 10:07:59;;;;;;;10.13;6.40;;;;;;;;;;5029106;28;20021;-60
2021/09/07 10:10:24;;;;;;;9.83;5.90;;;;;;;;;;5027405;28;20037;-59
2021/09/07 10:12:56;;;;;;;10.60;5.55;;;;;;;;;;5028932;28;20347;-60
2021/09/07 10:15:27;;;;;;;9.15;6.30;;;;;;;;;;5027144;28;20707;-59
2021/09/07 10:18:17;;;;;;;11.20;6.50;;;;;;;;;;5029050;28;20048;-58
2021/09/07 10:20:49;;;;;;;7.57;5.13;;;;;;;;;;5026128;28;20523;-59
2021/09/07 10:23:31;;;;;;;8.13;5.43;;;;;;;;;;5020045;28;20087;-60
2021/09/07 10:26:01;;;;;;;9.00;5.25;;;;;;;;;;5026327;28;20805;-59
2021/09/07 10:28:26;;;;;;;;;;;;;;;;;;5026059;28;20037;-60
2021/09/07 10:31:00;;;;;;;7.38;5.03;;;;;;;;;;5028511;28;19967;-60
2021/09/07 10:33:44;;;;;;;8.25;4.78;;;;;;;;;;5028122;28;20033;-59
2021/09/07 10:36:11;;;;;;;10.10;6.20;;;;;;;;;;5021624;28;20014;-58
2021/09/07 10:38:40;;;;;;;9.73;5.35;;;;;;;;;;5022016;28;20025;-59
2021/09/07 10:41:06;;;;;;;8.93;6.05;;;;;;;;;;5025278;28;20049;-60
2021/09/07 10:43:48;;;;;;;9.80;6.47;;;;;;;;;;5024513;28;20022;-59
2021/09/07 10:46:13;;;;;;;10.80;5.47;;;;;;;;;;5028646;28;20037;-58
2021/09/07 10:48:38;;;;;;;9.30;5.03;;;;;;;;;;5028631;28;20024;-59
2021/09/07 10:51:04;;;;;;;8.10;6.13;;;;;;;;;;5027725;28;20355;-58
2021/09/07 10:53:29;;;;;;;9.48;6.28;;;;;;;;;;5021074;28;20863;-59
2021/09/07 10:56:14;;;;;;;9.65;6.85;;;;;;;;;;5021904;28;20053;-59
2021/09/07 10:58:39;;;;;;;8.00;5.63;;;;;;;;;;5024221;28;20029;-60
2021/09/07 11:01:23;;;;;;;9.07;5.80;;;;;;;;;;5027145;28;20384;-59
2021/09/07 11:04:08;;;;;;;8.52;5.85;;;;;;;;;;5027973;28;20283;-60
2021/09/07 11:06:37;;;;;;;7.05;4.88;;;;;;;;;;5023592;28;20481;-61
2021/09/07 11:09:02;;;;;;;7.55;4.93;;;;;;;;;;5027054;28;20481;-59
2021/09/07 11:11:28;;;;;;;9.40;5.95;;;;;;;;;;5017580;28;20033;-59
2021/09/07 11:14:06;;;;;;;8.40;5.45;;;;;;;;;;5027789;28;20032;-60
2021/09/07 11:16:31;;;;;;;8.88;5.95;;;;;;;;;;5025658;28;20336;-61
2021/09/07 11:19:01;;;;;;;6.32;5.00;;;;;;;;;;5027649;28;20025;-61
2021/09/07 11:21:26;;;;;;;8.50;5.38;;;;;;;;;;5029956;28;20106;-62
2021/09/07 11:23:51;;;;;;;10.10;6.77;;;;;;;;;;5028320;28;20124;-62
2021/09/07 11:26:17;;;;;;;12.30;5.78;;;;;;;;;;5026911;28;20378;-61
2021/09/07 11:28:46;;;;;;;7.63;5.27;;;;;;;;;;5028053;28;20076;-62
2021/09/07 11:31:12;;;;;;;8.90;5.78;;;;;;;;;;5028164;28;20755;-61
2021/09/07 11:33:38;;;;;;;9.55;5.90;;;;;;;;;;5028135;28;20029;-62
2021/09/07 11:36:03;;;;;;;7.25;5.13;;;;;;;;;;5028357;28;20028;-62
2021/09/07 11:38:33;;;;;;;9.60;5.55;;;;;;;;;;5029571;28;20388;-61
2021/09/07 11:40:59;;;;;;;9.55;4.80;;;;;;;;;;5030515;28;20052;-62
2021/09/07 11:43:34;;;;;;;7.35;4.47;;;;;;;;;;5031562;28;20661;-62
2021/09/07 11:46:03;;;;;;;7.30;4.57;;;;;;;;;;5031707;28;20041;-62
2021/09/07 11:48:28;;;;;;;7.30;4.43;;;;;;;;;;5031396;28;20519;-63
2021/09/07 11:50:53;;;;;;;7.93;4.80;;;;;;;;;;5036821;28;20056;-61
2021/09/07 11:53:18;;;;;;;7.95;5.22;;;;;;;;;;5031477;28;20264;-62
2021/09/07 11:55:43;;;;;;;7.53;5.53;;;;;;;;;;5031597;28;20104;-61
2021/09/07 11:58:09;;;;;;;9.35;6.38;;;;;;;;;;5031316;28;20104;-62
2021/09/07 12:00:35;;;;;;;6.28;4.63;;;;;;;;;;5031354;28;20354;-62
2021/09/07 12:03:10;;;;;;;7.80;4.88;;;;;;;;;;5031410;28;20511;-63
2021/09/07 12:05:56;;;;;;;9.43;5.05;;;;;;;;;;5031555;28;20033;-62
2021/09/07 12:08:31;;;;;;;8.82;6.57;;;;;;;;;;5030818;28;20022;-62
2021/09/07 12:10:56;;;;;;;11.20;6.38;;;;;;;;;;5031205;28;20049;-62
2021/09/07 12:13:22;;;;;;;8.53;5.27;;;;;;;;;;5031101;28;20049;-62
2021/09/07 12:15:48;;;;;;;10.20;5.72;;;;;;;;;;5031158;28;20255;-62
2021/09/07 12:18:32;;;;;;;9.15;5.30;;;;;;;;;;5030782;28;20018;-62
2021/09/07 12:21:20;;;;;;;6.57;4.63;;;;;;;;;;5033151;28;20108;-62
2021/09/07 12:23:47;;;;;;;10.73;6.35;;;;;;;;;;5030718;28;20017;-61
2021/09/07 12:26:13;;;;;;;9.00;6.32;;;;;;;;;;5030670;28;20021;-62
2021/09/07 12:28:39;;;;;;;6.97;5.00;;;;;;;;;;5030699;28;20025;-62
2021/09/07 12:31:12;;;;;;;7.97;5.57;;;;;;;;;;5030704;28;20426;-62
2021/09/07 12:34:03;;;;;;;8.90;5.05;;;;;;;;;;5030925;28;20044;-62
2021/09/07 12:36:41;;;;;;;7.18;4.45;;;;;;;;;;5029391;28;20083;-62
2021/09/07 12:39:07;;;;;;;9.32;5.75;;;;;;;;;;5030909;28;20026;-62
2021/09/07 12:41:32;;;;;;;8.83;4.80;;;;;;;;;;5030186;28;20059;-62
2021/09/07 12:43:57;;;;;;;9.97;5.53;;;;;;;;;;5030790;28;20260;-62
2021/09/07 12:46:22;;;;;;;7.40;4.68;;;;;;;;;;5030260;28;20304;-61
2021/09/07 12:48:48;;;;;;;8.38;5.28;;;;;;;;;;5030130;28;20036;-62
2021/09/07 12:51:14;;;;;;;9.68;5.07;;;;;;;;;;5034672;28;20026;-62
2021/09/07 12:53:44;;;;;;;7.18;4.72;;;;;;;;;;5030392;28;20607;-62
2021/09/07 12:56:11;;;;;;;7.00;5.43;;;;;;;;;;5030132;28;20029;-61
2021/09/07 12:58:37;;;;;;;10.23;5.95;;;;;;;;;;5030172;28;20045;-62
2021/09/07 13:01:04;;;;;;;8.40;4.93;;;;;;;;;;5030283;28;20013;-60
2021/09/07 13:03:30;;;;;;;8.07;4.40;;;;;;;;;;5030009;28;20476;-62
2021/09/07 13:05:55;;;;;;;7.05;4.78;;;;;;;;;;5030043;28;20029;-63
2021/09/07 13:08:20;;;;;;;6.97;5.13;;;;;;;;;;5029664;28;20453;-62
2021/09/07 13:10:46;;;;;;;5.53;3.95;;;;;;;;;;5030155;28;20072;-62
2021/09/07 13:13:11;;;;;;;7.47;4.22;;;;;;;;;;5030058;28;20017;-62
2021/09/07 13:15:37;;;;;;;7.35;4.38;;;;;;;;;;5029772;28;20468;-62
2021/09/07 13:18:02;;;;;;;6.78;4.85;;;;;;;;;;5029943;28;20471;-61
2021/09/07 13:20:27;;;;;;;6.50;3.83;;;;;;;;;;5031831;28;20036;-62
2021/09/07 13:22:52;;;;;;;6.10;4.50;;;;;;;;;;5030043;28;20068;-62
2021/09/07 13:25:18;;;;;;;6.07;4.17;;;;;;;;;;5029340;28;20798;-62
2021/09/07 13:27:43;;;;;;;6.27;4.33;;;;;;;;;;5029845;28;20355;-61
2021/09/07 13:30:08;;;;;;;7.63;4.63;;;;;;;;;;5029585;28;21130;-63
2021/09/07 13:32:33;;;;;;;10.32;6.13;;;;;;;;;;5029463;28;20009;-62
2021/09/07 13:34:59;;;;;;;9.52;5.57;;;;;;;;;;5029490;28;20041;-62
2021/09/07 13:37:24;;;;;;;7.43;4.73;;;;;;;;;;5029475;28;20528;-62
2021/09/07 13:39:49;;;;;;;7.43;4.70;;;;;;;;;;5028998;28;20377;-62
2021/09/07 13:42:14;;;;;;;8.40;6.57;;;;;;;;;;5029243;28;20048;-62
2021/09/07 13:44:39;;;;;;;6.43;4.57;;;;;;;;;;5029306;28;20334;-62
2021/09/07 13:47:06;;;;;;;8.60;4.70;;;;;;;;;;5029123;28;20637;-61
2021/09/07 13:49:31;;;;;;;7.43;4.30;;;;;;;;;;5029579;28;20031;-62
2021/09/07 13:51:56;;;;;;;8.07;4.97;;;;;;;;;;5035016;28;20017;-61
2021/09/07 13:54:22;;;;;;;8.20;5.10;;;;;;;;;;5028998;28;20690;-61
2021/09/07 13:56:47;;;;;;;8.93;5.28;;;;;;;;;;5029642;28;20017;-62
2021/09/07 13:59:12;;;;;;;6.93;4.70;;;;;;;;;;5029084;28;20104;-61
2021/09/07 14:01:38;;;;;;;6.95;4.30;;;;;;;;;;5029179;28;21036;-61
2021/09/07 14:04:03;;;;;;;12.40;4.73;;;;;;;;;;5029009;28;20465;-62
2021/09/07 14:06:28;;;;;;;6.88;4.40;;;;;;;;;;5028951;28;20272;-62
2021/09/07 14:08:53;;;;;;;6.93;4.77;;;;;;;;;;5029343;28;20014;-61
2021/09/07 14:11:18;;;;;;;9.52;5.53;;;;;;;;;;5028774;28;20774;-62
2021/09/07 14:13:44;;;;;;;9.77;5.75;;;;;;;;;;5027329;28;20439;-62
2021/09/07 14:16:09;;;;;;;7.93;4.60;;;;;;;;;;5022646;28;20029;-61
2021/09/07 14:18:34;;;;;;;9.13;5.38;;;;;;;;;;5025009;28;20049;-60
2021/09/07 14:21:00;;;;;;;8.32;5.05;;;;;;;;;;5026332;28;20522;-61
2021/09/07 14:23:25;;;;;;;9.05;5.72;;;;;;;;;;5026120;28;20025;-61
2021/09/07 14:25:51;;;;;;;10.18;4.95;;;;;;;;;;5023261;28;20381;-60
2021/09/07 14:28:16;;;;;;;8.48;4.65;;;;;;;;;;5020848;28;20087;-60